Time;durP1;ratioP1;P1;durP2;ratioP2;P2;SDS_P1;SDS_P2;PMS_P1;PMS_P2;Temp;Humidity;BMP_temperature;BMP_pressure;BME280_temperature;BME280_humidity;BME280_pressure;Samples;Min_cycle;Max_cycle;Signal;HPM_P1;HPM_P2
2023/08/20 00:01:07;;;;;;;14.97;13.53;;;25.70;99.90;;;;;;4965693;28;20459;-71
2023/08/20 00:03:33;;;;;;;14.63;13.33;;;25.60;99.90;;;;;;4968330;28;20966;-70
2023/08/20 00:05:59;;;;;;;13.67;12.57;;;25.60;99.90;;;;;;4969266;28;20420;-70
2023/08/20 00:08:25;;;;;;;14.77;13.17;;;25.60;99.90;;;;;;4970169;28;20436;-69
2023/08/20 00:10:51;;;;;;;15.67;14.37;;;25.60;99.90;;;;;;4973386;28;20412;-69
2023/08/20 00:13:16;;;;;;;15.07;13.67;;;25.60;99.90;;;;;;4963792;28;20252;-70
2023/08/20 00:15:43;;;;;;;13.17;12.03;;;25.50;99.90;;;;;;4969434;28;20259;-70
2023/08/20 00:18:09;;;;;;;13.87;12.60;;;25.50;99.90;;;;;;4967131;28;20686;-70
2023/08/20 00:20:35;;;;;;;14.50;13.20;;;25.40;99.90;;;;;;4963028;28;20552;-70
2023/08/20 00:23:01;;;;;;;14.80;13.60;;;25.40;99.90;;;;;;4971129;28;20417;-70
2023/08/20 00:25:26;;;;;;;14.07;12.60;;;25.40;99.90;;;;;;4967115;28;20421;-70
2023/08/20 00:27:52;;;;;;;14.90;13.60;;;25.40;99.90;;;;;;4962645;28;20439;-70
2023/08/20 00:30:17;;;;;;;14.20;13.00;;;25.40;99.90;;;;;;4965322;28;20264;-70
2023/08/20 00:32:43;;;;;;;13.17;12.07;;;25.40;99.90;;;;;;4967833;28;20182;-70
2023/08/20 00:35:09;;;;;;;13.10;12.00;;;25.30;99.90;;;;;;4964252;28;20232;-70
2023/08/20 00:37:35;;;;;;;14.10;12.90;;;25.30;99.90;;;;;;4967621;28;20211;-69
2023/08/20 00:40:01;;;;;;;13.50;12.40;;;25.20;99.90;;;;;;4945715;28;20262;-70
2023/08/20 00:42:26;;;;;;;12.73;11.73;;;25.20;99.90;;;;;;4970161;28;20848;-70
2023/08/20 00:44:53;;;;;;;13.67;12.43;;;25.20;99.90;;;;;;4962543;28;20228;-70
2023/08/20 00:47:19;;;;;;;11.53;10.53;;;25.20;99.90;;;;;;4965097;28;20179;-70
2023/08/20 00:49:46;;;;;;;17.33;14.00;;;25.10;99.90;;;;;;4968223;28;20420;-70
2023/08/20 00:52:13;;;;;;;12.53;11.43;;;25.10;99.90;;;;;;4965701;28;20436;-70
2023/08/20 00:54:40;;;;;;;12.63;11.53;;;25.10;99.90;;;;;;4968079;28;20413;-70
2023/08/20 00:57:07;;;;;;;13.07;11.90;;;25.10;99.90;;;;;;4965523;28;20755;-72
2023/08/20 00:59:33;;;;;;;13.13;12.03;;;25.10;99.90;;;;;;4968790;28;20538;-71
2023/08/20 01:02:00;;;;;;;14.13;13.00;;;25.10;99.90;;;;;;4962520;28;20411;-69
2023/08/20 01:04:25;;;;;;;12.97;11.87;;;25.10;99.90;;;;;;4965795;28;20831;-70
2023/08/20 01:07:02;;;;;;;13.13;11.93;;;25.10;99.90;;;;;;4970065;28;20409;-71
2023/08/20 01:09:57;;;;;;;12.83;11.73;;;25.10;99.90;;;;;;4952507;28;20175;-71
2023/08/20 01:12:24;;;;;;;16.70;13.20;;;25.10;99.90;;;;;;4955822;28;20422;-70
2023/08/20 01:14:49;;;;;;;13.10;11.90;;;25.00;99.90;;;;;;4965540;28;20440;-71
2023/08/20 01:17:15;;;;;;;14.50;13.00;;;24.90;99.90;;;;;;4964693;28;20417;-71
2023/08/20 01:19:41;;;;;;;13.43;12.33;;;24.90;99.90;;;;;;4970641;28;20639;-71
2023/08/20 01:22:07;;;;;;;12.70;11.17;;;24.80;99.90;;;;;;4963491;28;20283;-71
2023/08/20 01:25:07;;;;;;;13.63;12.30;;;24.70;99.90;;;;;;4969861;28;20918;-71
2023/08/20 01:27:50;;;;;;;14.30;12.47;;;24.70;99.90;;;;;;4927246;28;20209;-71
2023/08/20 01:30:16;;;;;;;12.17;11.17;;;24.60;99.90;;;;;;4964897;28;20426;-70
2023/08/20 01:32:43;;;;;;;13.30;11.93;;;24.60;99.90;;;;;;4967367;28;20802;-71
2023/08/20 01:35:16;;;;;;;12.70;11.50;;;24.50;99.90;;;;;;4971628;28;20507;-71
2023/08/20 01:37:42;;;;;;;14.13;12.93;;;24.50;99.90;;;;;;4966819;28;20970;-71
2023/08/20 01:40:10;;;;;;;13.50;12.40;;;24.40;99.90;;;;;;4962880;28;20504;-71
2023/08/20 01:42:37;;;;;;;14.10;12.80;;;24.40;99.90;;;;;;4967392;28;20638;-71
2023/08/20 01:45:04;;;;;;;14.07;12.67;;;24.30;99.90;;;;;;4967539;28;20411;-70
2023/08/20 01:47:29;;;;;;;12.00;10.90;;;24.30;99.90;;;;;;4968132;28;20451;-71
2023/08/20 01:49:55;;;;;;;13.77;12.30;;;24.30;99.90;;;;;;4951825;28;20427;-71
2023/08/20 01:52:20;;;;;;;14.20;13.10;;;24.20;99.90;;;;;;4971724;28;20229;-71
2023/08/20 01:54:47;;;;;;;13.53;12.10;;;24.20;99.90;;;;;;4965712;28;20184;-71
2023/08/20 01:57:13;;;;;;;13.00;11.90;;;24.10;99.90;;;;;;4969396;28;20189;-70
2023/08/20 01:59:39;;;;;;;13.90;12.57;;;24.10;99.90;;;;;;4967291;28;20422;-71
2023/08/20 02:02:05;;;;;;;13.70;12.50;;;24.10;99.90;;;;;;4964981;28;20182;-71
2023/08/20 02:04:31;;;;;;;13.53;12.07;;;24.10;99.90;;;;;;4971929;28;20176;-71
2023/08/20 02:06:57;;;;;;;14.07;12.67;;;24.00;99.90;;;;;;4967129;28;20499;-71
2023/08/20 02:09:24;;;;;;;14.03;12.83;;;24.00;99.90;;;;;;4971424;28;20436;-71
2023/08/20 02:11:50;;;;;;;13.90;12.60;;;24.00;99.90;;;;;;4966895;28;20182;-71
2023/08/20 02:14:15;;;;;;;12.33;11.30;;;23.90;99.90;;;;;;4970574;28;20434;-69
2023/08/20 02:16:41;;;;;;;12.17;11.07;;;23.90;99.90;;;;;;4966879;28;20555;-71
2023/08/20 02:19:07;;;;;;;13.87;12.63;;;23.90;99.90;;;;;;4964254;28;20210;-70
2023/08/20 02:21:33;;;;;;;13.63;12.47;;;23.80;99.90;;;;;;4964536;28;20175;-70
2023/08/20 02:23:58;;;;;;;14.13;12.73;;;23.80;99.90;;;;;;4966991;28;20777;-71
2023/08/20 02:26:24;;;;;;;11.23;10.13;;;23.80;99.90;;;;;;4968143;28;20532;-70
2023/08/20 02:28:49;;;;;;;12.93;11.73;;;23.70;99.90;;;;;;4969786;28;20264;-70
2023/08/20 02:31:15;;;;;;;12.77;11.57;;;23.70;99.90;;;;;;4972202;28;20187;-70
2023/08/20 02:33:41;;;;;;;12.13;11.20;;;23.70;99.90;;;;;;4969110;28;20184;-71
2023/08/20 02:36:06;;;;;;;13.50;12.10;;;23.60;99.90;;;;;;4969863;28;20185;-70
2023/08/20 02:38:32;;;;;;;13.13;11.93;;;23.60;99.90;;;;;;4964071;28;20239;-71
2023/08/20 02:40:58;;;;;;;13.87;12.57;;;23.60;99.90;;;;;;4969718;28;20663;-71
2023/08/20 02:43:23;;;;;;;13.53;12.23;;;23.50;99.90;;;;;;4964393;28;20208;-71
2023/08/20 02:45:49;;;;;;;14.00;12.70;;;23.60;99.90;;;;;;4969479;28;20184;-71
2023/08/20 02:48:14;;;;;;;15.03;13.60;;;23.50;99.90;;;;;;4969470;28;20673;-71
2023/08/20 02:50:40;;;;;;;13.10;12.00;;;23.50;99.90;;;;;;4968583;28;20244;-71
2023/08/20 02:53:06;;;;;;;13.07;12.00;;;23.40;99.90;;;;;;4962768;28;20182;-71
2023/08/20 02:55:32;;;;;;;15.20;13.90;;;23.40;99.90;;;;;;4964112;28;20484;-71
2023/08/20 02:57:58;;;;;;;15.07;13.40;;;23.30;99.90;;;;;;4965295;28;20198;-71
2023/08/20 03:00:24;;;;;;;13.33;12.23;;;23.30;99.90;;;;;;4962569;28;20478;-71
2023/08/20 03:02:50;;;;;;;13.90;12.60;;;23.30;99.90;;;;;;4967413;28;20848;-71
2023/08/20 03:05:15;;;;;;;13.67;12.37;;;23.20;99.90;;;;;;4961505;28;20260;-70
2023/08/20 03:07:41;;;;;;;12.90;11.70;;;23.20;99.90;;;;;;4959447;28;20573;-71
2023/08/20 03:10:07;;;;;;;14.67;13.27;;;23.20;99.90;;;;;;4963789;28;20178;-71
2023/08/20 03:12:32;;;;;;;14.23;12.80;;;23.10;99.90;;;;;;4963966;28;20220;-70
2023/08/20 03:14:59;;;;;;;13.07;11.67;;;23.10;99.90;;;;;;4963716;28;20182;-70
2023/08/20 03:17:24;;;;;;;13.93;12.67;;;23.00;99.90;;;;;;4970695;28;20574;-70
2023/08/20 03:19:59;;;;;;;13.67;12.17;;;23.00;99.90;;;;;;4974170;28;20412;-70
2023/08/20 03:22:25;;;;;;;14.23;12.97;;;23.00;99.90;;;;;;4963369;28;20173;-70
2023/08/20 03:24:51;;;;;;;13.93;12.50;;;23.00;99.90;;;;;;4967316;28;20516;-70
2023/08/20 03:27:17;;;;;;;17.67;13.20;;;22.90;99.90;;;;;;4993335;23;20572;-69
2023/08/20 03:29:43;;;;;;;12.87;11.67;;;22.90;99.90;;;;;;4981212;28;20631;-70
2023/08/20 03:32:09;;;;;;;20.17;12.30;;;22.90;99.90;;;;;;4985102;28;20419;-68
2023/08/20 03:34:34;;;;;;;13.17;11.83;;;22.80;99.90;;;;;;4983226;28;20178;-68
2023/08/20 03:37:01;;;;;;;13.00;11.57;;;22.80;99.90;;;;;;4981870;28;20197;-68
2023/08/20 03:39:26;;;;;;;12.70;11.47;;;22.80;99.90;;;;;;4986136;28;20200;-69
2023/08/20 03:41:52;;;;;;;13.90;12.60;;;22.70;99.90;;;;;;4985958;28;20484;-68
2023/08/20 03:44:18;;;;;;;12.83;11.63;;;22.70;99.90;;;;;;4985967;28;20581;-70
2023/08/20 03:46:44;;;;;;;12.80;11.60;;;22.70;99.90;;;;;;4991996;28;20434;-68
2023/08/20 03:49:10;;;;;;;14.10;12.23;;;22.70;99.90;;;;;;4986136;28;20199;-68
2023/08/20 03:51:35;;;;;;;14.10;12.37;;;22.60;99.90;;;;;;4968998;28;20260;-68
2023/08/20 03:54:01;;;;;;;12.93;11.73;;;22.60;99.90;;;;;;4991735;28;20646;-70
2023/08/20 03:56:27;;;;;;;13.00;11.80;;;22.60;99.90;;;;;;4986193;28;20173;-69
2023/08/20 03:58:52;;;;;;;13.60;12.40;;;22.50;99.90;;;;;;4992407;28;20541;-69
2023/08/20 04:01:18;;;;;;;13.47;12.07;;;22.50;99.90;;;;;;4986685;28;20587;-69
2023/08/20 04:03:46;;;;;;;12.77;11.63;;;22.50;99.90;;;;;;4991541;28;20173;-69
2023/08/20 04:06:11;;;;;;;14.57;13.17;;;22.50;99.90;;;;;;4983954;28;20538;-69
2023/08/20 04:08:37;;;;;;;13.20;11.93;;;22.40;99.90;;;;;;4985619;28;20412;-68
2023/08/20 04:11:03;;;;;;;14.47;13.07;;;22.40;99.90;;;;;;4984771;28;20202;-69
2023/08/20 04:13:31;;;;;;;13.27;12.13;;;22.40;99.90;;;;;;4989271;28;20255;-69
2023/08/20 04:15:57;;;;;;;13.67;12.23;;;22.40;99.90;;;;;;4968877;28;20451;-68
2023/08/20 04:18:22;;;;;;;12.40;11.30;;;22.40;99.90;;;;;;4974800;28;20571;-69
2023/08/20 04:20:51;;;;;;;13.30;12.20;;;22.40;99.90;;;;;;4985879;28;20259;-69
2023/08/20 04:23:16;;;;;;;13.47;12.17;;;22.40;99.90;;;;;;4985509;28;20202;-68
2023/08/20 04:25:42;;;;;;;14.10;12.70;;;22.40;99.90;;;;;;4985989;28;20421;-69
2023/08/20 04:28:08;;;;;;;13.97;12.67;;;22.40;99.90;;;;;;4990703;28;20239;-69
2023/08/20 04:30:35;;;;;;;14.23;12.93;;;22.40;99.90;;;;;;4985695;28;20200;-68
2023/08/20 04:33:01;;;;;;;14.33;12.83;;;22.40;99.90;;;;;;4985081;28;20173;-68
2023/08/20 04:35:26;;;;;;;14.53;13.03;;;22.50;99.90;;;;;;4986894;28;20422;-73
2023/08/20 04:37:52;;;;;;;15.10;13.50;;;22.50;99.90;;;;;;4985048;28;20682;-68
2023/08/20 04:40:18;;;;;;;15.03;13.47;;;22.50;99.90;;;;;;4985145;28;20173;-68
2023/08/20 04:42:43;;;;;;;14.80;13.37;;;22.50;99.90;;;;;;4988523;28;20239;-69
2023/08/20 04:45:10;;;;;;;14.90;13.50;;;22.50;99.90;;;;;;4985730;28;20209;-68
2023/08/20 04:47:36;;;;;;;13.73;12.00;;;22.50;99.90;;;;;;4985123;28;20214;-68
2023/08/20 04:50:02;;;;;;;15.10;13.70;;;22.60;99.90;;;;;;4984462;28;20412;-69
2023/08/20 04:52:28;;;;;;;14.60;13.20;;;22.60;99.90;;;;;;4993273;28;20559;-68
2023/08/20 04:54:53;;;;;;;13.63;12.43;;;22.60;99.90;;;;;;4989631;28;20260;-69
2023/08/20 04:57:19;;;;;;;14.50;11.97;;;22.60;99.90;;;;;;4986979;28;20203;-69
2023/08/20 04:59:45;;;;;;;15.33;14.00;;;22.70;99.90;;;;;;4985242;28;20184;-69
2023/08/20 05:02:13;;;;;;;13.53;12.13;;;22.70;99.90;;;;;;4984045;28;20180;-70
2023/08/20 05:04:40;;;;;;;16.60;13.70;;;22.80;99.90;;;;;;4985291;28;20421;-70
2023/08/20 05:07:05;;;;;;;13.27;11.97;;;22.70;99.90;;;;;;4983765;28;20432;-69
2023/08/20 05:09:32;;;;;;;13.57;12.33;;;22.80;99.90;;;;;;4984301;28;20427;-69
2023/08/20 05:11:58;;;;;;;14.07;12.80;;;22.80;99.90;;;;;;4988787;28;20188;-68
2023/08/20 05:14:23;;;;;;;15.10;13.60;;;22.80;99.90;;;;;;4984185;28;20426;-68
2023/08/20 05:16:49;;;;;;;15.03;13.60;;;22.80;99.90;;;;;;4967310;28;20283;-70
2023/08/20 05:19:14;;;;;;;14.33;13.13;;;22.90;99.90;;;;;;4984324;28;20717;-68
2023/08/20 05:21:40;;;;;;;15.40;14.00;;;23.00;99.90;;;;;;4993289;28;20543;-69
2023/08/20 05:24:06;;;;;;;17.40;14.73;;;23.20;99.90;;;;;;4984196;28;20199;-68
2023/08/20 05:26:31;;;;;;;14.10;12.70;;;23.30;99.90;;;;;;4991168;28;20217;-70
2023/08/20 05:28:57;;;;;;;15.30;13.90;;;23.40;99.90;;;;;;4985118;28;20180;-69
2023/08/20 05:31:22;;;;;;;16.47;13.23;;;23.30;99.90;;;;;;4982302;28;20187;-69
2023/08/20 05:33:48;;;;;;;12.63;11.43;;;23.60;99.90;;;;;;4988091;28;20185;-69
2023/08/20 05:36:14;;;;;;;15.50;13.97;;;23.70;99.90;;;;;;4987198;28;20640;-69
2023/08/20 05:38:42;;;;;;;14.40;13.07;;;23.60;99.90;;;;;;4985193;28;20226;-69
2023/08/20 05:41:08;;;;;;;13.30;11.80;;;24.10;99.90;;;;;;4990080;28;20427;-70
2023/08/20 05:43:33;;;;;;;15.10;11.50;;;24.40;99.90;;;;;;4986518;28;20431;-70
2023/08/20 05:45:59;;;;;;;12.87;11.77;;;24.20;99.90;;;;;;4991958;28;20183;-70
2023/08/20 05:48:24;;;;;;;16.70;12.63;;;24.00;99.90;;;;;;4980585;28;20236;-69
2023/08/20 05:50:50;;;;;;;13.13;12.03;;;24.00;99.90;;;;;;4980985;28;20186;-71
2023/08/20 05:53:15;;;;;;;13.13;11.90;;;24.30;99.90;;;;;;4989131;28;20181;-69
2023/08/20 05:55:41;;;;;;;13.03;11.70;;;24.70;99.90;;;;;;4980877;28;20184;-68
2023/08/20 05:58:06;;;;;;;12.57;11.37;;;24.90;99.90;;;;;;4987965;28;20278;-69
2023/08/20 06:00:33;;;;;;;12.97;11.63;;;24.60;99.90;;;;;;4983234;28;20740;-68
2023/08/20 06:02:59;;;;;;;13.33;12.00;;;24.60;99.90;;;;;;4984731;28;20422;-69
2023/08/20 06:05:24;;;;;;;12.50;11.30;;;24.70;99.90;;;;;;4986047;28;20174;-69
2023/08/20 06:07:50;;;;;;;13.40;12.07;;;24.80;99.90;;;;;;4986960;28;20204;-68
2023/08/20 06:10:16;;;;;;;13.37;11.63;;;25.00;99.90;;;;;;4987936;28;20191;-70
2023/08/20 06:12:41;;;;;;;12.43;11.33;;;25.00;99.90;;;;;;4980730;28;20177;-68
2023/08/20 06:15:08;;;;;;;12.53;11.33;;;25.20;99.90;;;;;;4988194;28;20183;-70
2023/08/20 06:17:33;;;;;;;12.37;11.20;;;25.10;99.90;;;;;;4982867;28;20217;-69
2023/08/20 06:19:59;;;;;;;12.40;11.17;;;25.20;99.90;;;;;;4983881;28;20416;-69
2023/08/20 06:22:24;;;;;;;15.23;12.60;;;24.70;99.90;;;;;;4968876;28;20593;-68
2023/08/20 06:24:50;;;;;;;13.03;11.93;;;24.70;99.90;;;;;;4991214;28;20555;-69
2023/08/20 06:27:16;;;;;;;12.67;11.47;;;24.70;99.90;;;;;;4989713;28;20599;-68
2023/08/20 06:29:41;;;;;;;14.73;13.23;;;24.70;99.90;;;;;;4980623;28;20191;-70
2023/08/20 06:32:07;;;;;;;14.50;13.10;;;24.70;99.90;;;;;;4988779;28;20180;-69
2023/08/20 06:34:34;;;;;;;11.27;10.20;;;24.50;99.90;;;;;;4985947;28;20224;-69
2023/08/20 06:37:00;;;;;;;13.00;11.17;;;24.70;99.90;;;;;;4982569;28;20188;-69
2023/08/20 06:39:25;;;;;;;13.53;12.33;;;24.70;99.90;;;;;;4983946;28;20464;-69
2023/08/20 06:41:51;;;;;;;13.07;11.87;;;24.50;99.90;;;;;;4984251;28;20558;-69
2023/08/20 06:44:17;;;;;;;12.73;11.57;;;24.80;99.90;;;;;;4983670;28;20189;-69
2023/08/20 06:46:42;;;;;;;12.67;11.43;;;25.10;99.90;;;;;;4986247;28;20704;-70
2023/08/20 06:49:08;;;;;;;13.30;12.00;;;25.20;99.90;;;;;;4984203;28;20206;-70
2023/08/20 06:51:33;;;;;;;13.43;12.10;;;25.00;99.90;;;;;;4986164;28;20646;-72
2023/08/20 06:53:59;;;;;;;12.40;11.30;;;25.20;99.90;;;;;;4985971;28;20177;-69
2023/08/20 06:56:24;;;;;;;14.80;13.40;;;25.30;99.90;;;;;;4994030;28;20229;-69
2023/08/20 06:58:50;;;;;;;12.57;11.37;;;25.20;99.90;;;;;;4987524;28;20215;-69
2023/08/20 07:01:16;;;;;;;13.00;11.73;;;25.10;99.90;;;;;;4992321;28;20263;-69
2023/08/20 07:03:43;;;;;;;15.00;13.20;;;24.70;99.90;;;;;;4987319;28;20421;-68
2023/08/20 07:06:10;;;;;;;13.20;12.10;;;24.60;99.90;;;;;;4985793;28;20173;-68
2023/08/20 07:08:38;;;;;;;12.40;11.30;;;24.40;99.90;;;;;;4987367;28;20442;-69
2023/08/20 07:11:04;;;;;;;13.03;11.87;;;24.30;99.90;;;;;;4986062;28;20408;-68
2023/08/20 07:13:30;;;;;;;13.17;11.77;;;24.20;99.90;;;;;;4987898;28;20433;-70
2023/08/20 07:15:55;;;;;;;13.90;12.47;;;24.00;99.90;;;;;;4986942;28;20178;-69
2023/08/20 07:18:21;;;;;;;13.63;12.43;;;24.10;99.90;;;;;;4986676;28;20234;-68
2023/08/20 07:20:46;;;;;;;13.70;12.20;;;23.90;99.90;;;;;;4986059;28;20686;-71
2023/08/20 07:23:12;;;;;;;13.93;12.63;;;23.90;99.90;;;;;;4985633;28;20179;-69
2023/08/20 07:25:39;;;;;;;14.03;12.77;;;24.10;99.90;;;;;;4994373;28;20181;-68
2023/08/20 07:28:06;;;;;;;13.00;11.53;;;24.40;99.90;;;;;;4985317;28;20215;-71
2023/08/20 07:30:32;;;;;;;13.33;12.03;;;24.50;99.90;;;;;;4988994;28;20459;-69
2023/08/20 07:32:57;;;;;;;15.37;13.87;;;24.30;99.90;;;;;;4992013;28;20445;-69
2023/08/20 07:35:23;;;;;;;13.43;12.03;;;24.10;99.90;;;;;;4994147;28;20180;-71
2023/08/20 07:37:49;;;;;;;13.13;11.83;;;23.90;99.90;;;;;;4992799;28;20210;-70
2023/08/20 07:40:15;;;;;;;14.13;12.60;;;24.40;99.90;;;;;;4992503;28;20419;-68
2023/08/20 07:42:41;;;;;;;13.63;12.33;;;24.30;99.90;;;;;;4990075;28;20227;-69
2023/08/20 07:45:07;;;;;;;14.53;13.23;;;24.30;99.90;;;;;;4986571;28;20551;-68
2023/08/20 07:47:34;;;;;;;12.23;11.07;;;24.60;99.90;;;;;;4988817;28;20529;-72
2023/08/20 07:49:59;;;;;;;13.57;12.27;;;24.40;99.90;;;;;;4990906;28;20412;-69
2023/08/20 07:52:25;;;;;;;11.97;10.87;;;24.20;99.90;;;;;;4985172;28;20414;-68
2023/08/20 07:54:51;;;;;;;13.53;12.10;;;24.40;99.90;;;;;;4986647;28;20638;-68
2023/08/20 07:57:16;;;;;;;13.43;12.10;;;24.40;99.90;;;;;;4985568;28;20616;-69
2023/08/20 07:59:42;;;;;;;12.20;10.90;;;24.40;99.90;;;;;;4986363;28;20263;-69
2023/08/20 08:02:07;;;;;;;12.90;11.50;;;24.50;99.90;;;;;;4986092;28;20175;-68
2023/08/20 08:04:36;;;;;;;12.27;10.00;;;24.60;99.90;;;;;;4992429;28;20205;-68
2023/08/20 08:07:02;;;;;;;12.70;11.40;;;24.70;99.90;;;;;;4985993;28;20208;-69
2023/08/20 08:09:30;;;;;;;13.37;11.97;;;25.30;99.90;;;;;;4994387;28;20781;-68
2023/08/20 08:11:55;;;;;;;12.50;11.30;;;25.60;99.90;;;;;;4990057;28;20244;-69
2023/08/20 08:14:21;;;;;;;10.87;9.97;;;26.10;99.90;;;;;;4985451;28;20423;-70
2023/08/20 08:16:47;;;;;;;11.40;10.20;;;26.90;99.90;;;;;;4989525;28;20295;-69
2023/08/20 08:19:13;;;;;;;10.30;8.60;;;27.50;99.90;;;;;;4984312;28;20630;-70
2023/08/20 08:21:39;;;;;;;10.03;9.13;;;27.90;99.90;;;;;;4986094;28;20269;-71
2023/08/20 08:24:05;;;;;;;10.57;9.67;;;28.10;99.90;;;;;;4985047;28;20180;-71
2023/08/20 08:26:31;;;;;;;8.60;7.80;;;29.00;99.90;;;;;;4992742;28;20424;-71
2023/08/20 08:28:57;;;;;;;8.97;8.17;;;29.30;99.90;;;;;;4985579;28;20415;-70
2023/08/20 08:31:23;;;;;;;8.20;7.50;;;29.60;99.90;;;;;;4990008;28;20421;-71
2023/08/20 08:33:49;;;;;;;9.40;8.33;;;29.90;99.90;;;;;;4988950;28;20420;-70
2023/08/20 08:36:16;;;;;;;7.93;7.33;;;29.30;99.90;;;;;;4987189;28;20263;-68
2023/08/20 08:38:42;;;;;;;7.83;7.13;;;29.70;99.90;;;;;;4982188;28;20341;-70
2023/08/20 08:41:11;;;;;;;7.57;6.90;;;30.80;99.90;;;;;;4989876;28;20510;-71
2023/08/20 08:43:38;;;;;;;7.20;6.47;;;31.20;99.90;;;;;;4984983;28;20431;-70
2023/08/20 08:46:07;;;;;;;7.00;6.40;;;30.60;99.90;;;;;;4993631;28;20445;-70
2023/08/20 08:48:35;;;;;;;7.50;6.80;;;30.90;99.90;;;;;;4987645;28;20441;-70
2023/08/20 08:51:02;;;;;;;7.73;7.07;;;31.30;99.90;;;;;;4985856;28;20413;-69
2023/08/20 08:53:28;;;;;;;6.40;5.90;;;30.30;99.90;;;;;;4988198;28;20413;-70
2023/08/20 08:55:53;;;;;;;6.40;5.90;;;30.60;99.90;;;;;;4978442;28;20485;-71
2023/08/20 08:58:19;;;;;;;7.67;6.87;;;29.90;99.90;;;;;;4988541;28;20551;-70
2023/08/20 09:00:44;;;;;;;6.07;5.57;;;30.00;99.90;;;;;;4984946;28;20228;-68
2023/08/20 09:03:10;;;;;;;6.20;5.70;;;30.60;99.90;;;;;;4991201;28;20187;-69
2023/08/20 09:05:56;;;;;;;6.80;5.60;;;31.50;99.90;;;;;;4987882;28;20177;-69
2023/08/20 09:08:26;;;;;;;5.23;4.53;;;31.00;99.90;;;;;;4969432;28;20197;-69
2023/08/20 09:10:53;;;;;;;5.30;4.80;;;30.00;99.90;;;;;;4985592;28;20453;-71
2023/08/20 09:13:38;;;;;;;6.00;5.50;;;29.90;99.90;;;;;;4984337;28;20412;-69
2023/08/20 09:16:09;;;;;;;5.17;4.77;;;29.50;99.90;;;;;;4986514;28;20463;-69
2023/08/20 09:18:42;;;;;;;6.47;5.87;;;30.20;99.90;;;;;;4984289;28;20460;-69
2023/08/20 09:21:08;;;;;;;5.80;5.33;;;30.70;99.90;;;;;;4992600;28;20471;-69
2023/08/20 09:23:34;;;;;;;6.63;6.13;;;30.00;99.90;;;;;;4989324;28;20431;-71
2023/08/20 09:26:03;;;;;;;6.90;6.30;;;29.50;99.90;;;;;;4982974;28;20432;-69
2023/08/20 09:28:29;;;;;;;6.40;5.80;;;27.80;99.90;;;;;;4987944;28;20212;-69
2023/08/20 09:31:43;;;;;;;5.30;4.90;;;27.70;99.90;;;;;;5004977;23;20488;-69
2023/08/20 10:15:37;;;;;;;4.97;4.57;;;30.40;99.90;;;;;;4972559;28;20483;-74
2023/08/20 10:39:30;;;;;;;3.40;3.10;;;28.50;99.90;;;;;;4870776;29;20442;-71
2023/08/20 10:43:22;;;;;;;3.10;2.90;;;28.40;99.90;;;;;;4822649;29;20441;-71
2023/08/20 10:46:36;;;;;;;2.97;2.63;;;28.50;99.90;;;;;;4829685;29;20447;-72
2023/08/20 10:49:41;;;;;;;3.13;2.83;;;29.00;99.90;;;;;;4902968;29;20602;-69
2023/08/20 10:52:13;;;;;;;2.47;2.33;;;29.00;99.90;;;;;;4888415;29;20419;-70
2023/08/20 10:54:47;;;;;;;3.33;2.83;;;28.90;99.90;;;;;;4931060;28;20440;-71
2023/08/20 10:57:14;;;;;;;3.33;2.43;;;27.60;99.90;;;;;;4976863;28;20436;-72
2023/08/20 11:00:11;;;;;;;3.63;2.77;;;28.00;99.90;;;;;;4988761;28;20413;-71
2023/08/20 11:03:41;;;;;;;2.60;2.40;;;27.90;99.90;;;;;;4985389;28;20421;-70
2023/08/20 11:09:39;;;;;;;2.90;2.60;;;28.30;99.90;;;;;;4985801;28;20487;-74
2023/08/20 11:12:32;;;;;;;2.40;2.20;;;28.40;99.90;;;;;;4988329;28;20443;-70
2023/08/20 11:15:07;;;;;;;2.87;2.27;;;28.50;99.90;;;;;;4947443;28;20452;-71
2023/08/20 11:17:44;;;;;;;3.00;2.80;;;28.50;99.90;;;;;;4962018;28;20451;-69
2023/08/20 11:23:22;;;;;;;2.90;2.67;;;28.70;99.90;;;;;;4904005;29;20443;-71
2023/08/20 11:26:00;;;;;;;5.60;3.00;;;28.80;99.90;;;;;;4968674;28;20844;-73
2023/08/20 11:28:49;;;;;;;2.57;2.37;;;28.90;99.90;;;;;;4971143;28;20472;-70
2023/08/20 11:31:17;;;;;;;3.60;2.40;;;28.90;99.90;;;;;;4969393;28;20586;-74
2023/08/20 11:33:45;;;;;;;2.50;2.30;;;29.10;99.90;;;;;;4988446;28;20499;-74
2023/08/20 11:36:11;;;;;;;2.50;2.30;;;28.90;99.90;;;;;;4978248;28;20432;-73
2023/08/20 11:38:37;;;;;;;3.87;2.47;;;28.80;99.90;;;;;;4983063;28;20522;-72
2023/08/20 11:41:02;;;;;;;3.47;3.20;;;28.90;99.90;;;;;;4992076;28;20437;-73
2023/08/20 11:43:28;;;;;;;2.30;2.10;;;29.00;99.90;;;;;;4988882;28;20186;-72
2023/08/20 11:45:54;;;;;;;2.40;2.20;;;29.30;99.90;;;;;;4992382;28;20188;-70
2023/08/20 11:48:23;;;;;;;2.50;2.30;;;29.10;99.90;;;;;;4985053;28;20445;-74
2023/08/20 11:50:52;;;;;;;2.50;2.30;;;29.10;99.90;;;;;;4985427;28;20207;-70
2023/08/20 11:53:24;;;;;;;2.53;2.03;;;29.20;99.90;;;;;;4990752;28;20437;-72
2023/08/20 11:55:50;;;;;;;2.50;2.30;;;29.00;99.90;;;;;;4987184;28;20499;-71
2023/08/20 11:58:18;;;;;;;2.70;2.27;;;28.80;99.90;;;;;;4992269;28;20409;-70
2023/08/20 12:00:49;;;;;;;2.10;1.93;;;28.60;99.90;;;;;;4984688;28;20208;-71
2023/08/20 12:03:15;;;;;;;2.80;2.43;;;28.70;99.90;;;;;;4992763;28;20421;-73
2023/08/20 12:05:43;;;;;;;2.13;1.93;;;28.80;99.90;;;;;;4984876;28;20429;-71
2023/08/20 12:08:15;;;;;;;4.30;2.63;;;28.70;99.90;;;;;;4994262;28;20484;-71
2023/08/20 12:10:42;;;;;;;3.57;3.20;;;28.50;99.90;;;;;;4990735;28;20421;-72
2023/08/20 12:13:08;;;;;;;2.50;2.30;;;28.40;99.90;;;;;;4988341;28;20436;-71
2023/08/20 12:15:34;;;;;;;2.50;2.30;;;28.60;99.90;;;;;;4989966;28;20414;-72
2023/08/20 12:18:05;;;;;;;5.17;2.77;;;28.80;99.90;;;;;;4985230;28;20194;-72
2023/08/20 12:20:34;;;;;;;3.70;2.27;;;28.80;99.90;;;;;;4991939;28;20186;-71
2023/08/20 12:23:04;;;;;;;2.10;1.90;;;28.80;99.90;;;;;;4977251;28;20406;-73
2023/08/20 12:25:33;;;;;;;2.30;2.10;;;28.80;99.90;;;;;;4988152;28;20468;-72
2023/08/20 12:27:59;;;;;;;2.23;2.03;;;29.00;99.90;;;;;;4981323;28;20450;-71
2023/08/20 12:30:25;;;;;;;2.10;1.90;;;28.80;99.90;;;;;;4995174;28;20445;-72
2023/08/20 12:32:50;;;;;;;3.13;2.93;;;29.00;99.90;;;;;;4990406;28;20431;-71
2023/08/20 12:35:16;;;;;;;3.10;2.33;;;29.20;99.90;;;;;;4977242;28;20197;-71
2023/08/20 12:37:41;;;;;;;2.57;2.37;;;29.20;99.90;;;;;;4989879;28;20202;-72
2023/08/20 12:40:10;;;;;;;3.90;2.00;;;29.20;99.90;;;;;;4985412;28;20293;-74
2023/08/20 12:42:38;;;;;;;1.97;1.80;;;29.30;99.90;;;;;;4986363;28;20177;-72
2023/08/20 12:45:05;;;;;;;2.40;2.20;;;29.20;99.90;;;;;;4986963;28;20413;-71
2023/08/20 12:47:31;;;;;;;2.30;2.10;;;28.90;99.90;;;;;;4990821;28;20432;-70
2023/08/20 12:49:56;;;;;;;2.67;2.47;;;29.00;99.90;;;;;;4970326;28;20446;-72
2023/08/20 12:52:22;;;;;;;5.80;2.07;;;29.10;99.90;;;;;;4992061;28;20193;-72
2023/08/20 12:54:48;;;;;;;1.90;1.80;;;29.10;99.90;;;;;;4995784;28;20221;-72
2023/08/20 12:57:13;;;;;;;2.30;2.10;;;29.20;99.90;;;;;;4985773;28;20166;-73
2023/08/20 12:59:39;;;;;;;2.33;2.00;;;29.30;99.90;;;;;;4990946;28;20170;-72
2023/08/20 13:02:05;;;;;;;2.90;1.70;;;29.20;99.90;;;;;;4992841;28;20257;-72
2023/08/20 13:04:31;;;;;;;1.63;1.53;;;29.20;99.90;;;;;;4987176;28;20413;-73
2023/08/20 13:06:57;;;;;;;1.57;1.47;;;29.20;99.90;;;;;;4987336;28;20186;-72
2023/08/20 13:09:23;;;;;;;1.97;1.87;;;29.10;99.90;;;;;;4986589;28;20500;-71
2023/08/20 13:11:51;;;;;;;2.67;2.20;;;29.20;99.90;;;;;;4991900;28;20246;-71
2023/08/20 13:14:17;;;;;;;2.33;1.73;;;29.10;99.90;;;;;;4985828;28;20422;-73
2023/08/20 13:16:43;;;;;;;1.93;1.63;;;29.30;99.90;;;;;;4987507;28;20431;-71
2023/08/20 13:19:09;;;;;;;2.23;1.80;;;29.60;99.90;;;;;;4986512;28;20196;-73
2023/08/20 13:21:34;;;;;;;2.60;1.70;;;29.70;99.90;;;;;;4987035;28;20216;-71
2023/08/20 13:24:00;;;;;;;2.63;1.80;;;29.50;99.90;;;;;;4986374;28;20416;-71
2023/08/20 13:26:25;;;;;;;1.90;1.80;;;29.40;99.90;;;;;;4985145;28;20173;-71
2023/08/20 13:28:51;;;;;;;1.77;1.67;;;29.30;99.90;;;;;;4991118;28;20205;-71
2023/08/20 13:31:17;;;;;;;2.87;1.83;;;29.30;99.90;;;;;;4986452;28;20193;-71
2023/08/20 13:33:42;;;;;;;1.50;1.30;;;29.30;99.90;;;;;;4969704;28;20201;-72
2023/08/20 13:36:08;;;;;;;3.60;1.57;;;29.60;99.90;;;;;;4986912;28;20158;-71
2023/08/20 13:38:34;;;;;;;2.03;1.83;;;29.60;99.90;;;;;;4985408;28;20174;-71
2023/08/20 13:41:00;;;;;;;2.03;1.70;;;29.70;99.90;;;;;;4989722;28;20242;-70
2023/08/20 13:43:25;;;;;;;1.40;1.30;;;29.60;99.90;;;;;;4969670;28;20265;-69
2023/08/20 13:45:51;;;;;;;2.40;1.13;;;29.40;99.90;;;;;;4990323;28;20165;-70